createdAt,value
2022-08-17T00:02:01.696Z,0.056840003
2022-08-17T00:02:25.196Z,0.056840003
2022-08-17T00:02:25.207Z,0.056840003
2022-08-17T00:03:02.872Z,0.073080003
2022-08-17T00:04:05.908Z,0.170520008
2022-08-17T00:04:11.783Z,0.170520008
2022-08-17T00:05:08.966Z,0.073080003
2022-08-17T00:07:07.261Z,0.089320004
2022-08-17T00:08:03.399Z,0.146160007
2022-08-17T00:09:06.434Z,0.154280007
2022-08-17T00:10:08.757Z,0.048720002
2022-08-17T00:12:42.984Z,0.081200004
2022-08-17T00:12:46.102Z,0.081200004
2022-08-17T00:12:51.217Z,0.081200004
2022-08-17T00:13:40.846Z,0.146160007
2022-08-17T00:14:35.931Z,0.105560005
2022-08-17T00:15:35.521Z,0.097440004
2022-08-17T00:16:55.555Z,0.048720002
2022-08-17T00:16:56.650Z,0.048720002
2022-08-17T00:16:56.713Z,0.048720002
2022-08-17T00:17:38.657Z,0.121800005
2022-08-17T00:19:01.115Z,0.138040006
2022-08-17T00:19:05.667Z,0.138040006
2022-08-17T00:19:06.275Z,0.138040006
2022-08-17T00:19:33.873Z,0.048720002
2022-08-17T00:20:34.750Z,0.089320004
2022-08-17T00:22:31.502Z,0.129920006
2022-08-17T00:22:36.715Z,0.129920006
2022-08-17T00:23:30.326Z,0.040600002
2022-08-17T00:24:30.452Z,0.056840003
2022-08-17T00:25:32.333Z,0.154280007
2022-08-17T00:26:43.606Z,0.129920006
2022-08-17T00:26:44.341Z,0.129920006
2022-08-17T00:26:44.477Z,0.129920006
2022-08-17T00:27:33.017Z,0.064960003
2022-08-17T00:28:29.448Z,0.121800005
2022-08-17T00:29:32.448Z,0.138040006
2022-08-17T00:30:27.865Z,0.081200004
2022-08-17T00:33:12.615Z,0.121800005
2022-08-17T00:33:15.411Z,0.121800005
2022-08-17T00:33:15.854Z,0.121800005
2022-08-17T00:33:43.779Z,0.073080003
2022-08-17T00:34:40.053Z,0.138040006
2022-08-17T00:35:41.837Z,0.089320004
2022-08-17T00:37:36.331Z,0.056840003
2022-08-17T00:38:29.040Z,0.040600002
2022-08-17T00:39:30.516Z,0.105560005
2022-08-17T00:40:40.084Z,0.016240001
2022-08-17T00:40:44.327Z,0.016240001
2022-08-17T00:40:44.673Z,0.016240001
2022-08-17T00:41:29.867Z,0.081200004
2022-08-17T00:42:32.120Z,0.113680005
2022-08-17T00:43:34.851Z,0.113680005
2022-08-17T00:44:32.819Z,0.081200004
2022-08-17T00:45:36.999Z,0.081200004
2022-08-17T00:46:31.096Z,0.194880009
2022-08-17T00:47:32.530Z,0.105560005
2022-08-17T00:48:29.203Z,0.121800005
2022-08-17T00:49:29.507Z,0.081200004
2022-08-17T00:50:21.364Z,0.089320004
2022-08-17T00:51:20.459Z,0.081200004
2022-08-17T00:52:15.838Z,0.032480001
2022-08-17T00:53:14.970Z,0.064960003
2022-08-17T00:54:13.035Z,0.064960003
2022-08-17T00:55:12.545Z,0.040600002
2022-08-17T00:56:13.036Z,0.064960003
2022-08-17T00:57:16.319Z,0.081200004
2022-08-17T00:58:15.062Z,0.032480001
2022-08-17T00:59:13.405Z,0.105560005
2022-08-17T01:00:16.906Z,0.089320004
2022-08-17T01:02:47.291Z,0.121800005
2022-08-17T01:03:50.061Z,0.081200004
2022-08-17T01:04:48.559Z,0.170520008
2022-08-17T01:05:46.509Z,0.138040006
2022-08-17T01:06:46.393Z,0.113680005
2022-08-17T01:07:41.208Z,0.032480001
2022-08-17T01:08:43.884Z,0.105560005
2022-08-17T01:09:45.826Z,0.048720002
2022-08-17T01:10:57.453Z,0.089320004
2022-08-17T01:10:58.124Z,0.089320004
2022-08-17T01:10:59.418Z,0.089320004
2022-08-17T01:12:43.642Z,0.024360001
2022-08-17T01:13:49.119Z,0.073080003
2022-08-17T01:14:41.716Z,0.081200004
2022-08-17T01:15:49.796Z,0.064960003
2022-08-17T01:17:43.560Z,0.138040006
2022-08-17T01:18:42.116Z,0.064960003
2022-08-17T01:19:41.495Z,0.073080003
2022-08-17T01:20:48.217Z,0.089320004
2022-08-17T01:20:48.488Z,0.089320004
2022-08-17T01:21:39.772Z,0.105560005
2022-08-17T01:22:34.393Z,0.129920006
2022-08-17T01:23:34.904Z,0.113680005
2022-08-17T01:24:37.998Z,0.081200004
2022-08-17T01:25:37.725Z,0.146160007
2022-08-17T01:26:34.331Z,0.113680005
2022-08-17T01:27:34.700Z,0.113680005
2022-08-17T01:28:53.073Z,0.113680005
2022-08-17T01:28:53.727Z,0.113680005
2022-08-17T01:28:54.949Z,0.113680005
2022-08-17T01:29:34.239Z,0.040600002
2022-08-17T01:30:57.108Z,0.056840003
2022-08-17T01:30:57.342Z,0.056840003
2022-08-17T01:31:39.408Z,0.105560005
2022-08-17T01:32:33.715Z,0.032480001
2022-08-17T01:33:32.284Z,0.081200004
2022-08-17T01:34:42.650Z,0.040600002
2022-08-17T01:34:43.424Z,0.040600002
2022-08-17T01:34:43.465Z,0.040600002
2022-08-17T01:35:32.128Z,0.064960003
2022-08-17T01:36:28.218Z,0.089320004
2022-08-17T01:37:31.908Z,0.024360001
2022-08-17T01:38:31.337Z,0.089320004
2022-08-17T01:39:33.125Z,0.138040006
2022-08-17T01:40:27.332Z,0.121800005
2022-08-17T01:42:24.120Z,0.113680005
2022-08-17T01:43:26.597Z,0.081200004
2022-08-17T01:44:22.152Z,0.056840003
2022-08-17T01:45:21.638Z,0.081200004
2022-08-17T01:47:58.143Z,0.105560005
2022-08-17T01:51:03.042Z,0.138040006
2022-08-17T01:51:59.405Z,0.056840003
2022-08-17T01:52:57.749Z,0.129920006
2022-08-17T01:53:52.965Z,0.154280007
2022-08-17T01:54:51.608Z,0.089320004
2022-08-17T01:55:48.210Z,0.032480001
2022-08-17T01:56:47.248Z,0.081200004
2022-08-17T01:57:42.439Z,0.097440004
2022-08-17T01:58:42.080Z,0.129920006
2022-08-17T01:59:37.425Z,0.097440004
2022-08-17T02:00:59.340Z,0.154280007
2022-08-17T02:00:59.762Z,0.154280007
2022-08-17T02:02:31.036Z,0.040600002
2022-08-17T02:03:30.465Z,0.081200004
2022-08-17T02:04:22.068Z,0.032480001
2022-08-17T02:05:22.654Z,0.097440004
2022-08-17T02:06:27.455Z,0.170520008
2022-08-17T02:06:27.462Z,0.170520008
2022-08-17T02:06:27.627Z,0.170520008
2022-08-17T02:07:13.663Z,0.162400007
2022-08-17T02:08:09.091Z,0.048720002
2022-08-17T02:08:19.899Z,0.048720002
2022-08-17T02:08:20.049Z,0.048720002
2022-08-17T02:09:16.810Z,0.081200004
2022-08-17T02:10:18.979Z,0.064960003
2022-08-17T02:10:19.865Z,0.064960003
2022-08-17T02:12:38.080Z,0.081200004
2022-08-17T02:12:38.539Z,0.081200004
2022-08-17T02:12:39.159Z,0.081200004
2022-08-17T02:13:13.593Z,0.113680005
2022-08-17T02:14:07.903Z,0.146160007
2022-08-17T02:15:05.164Z,0.129920006
2022-08-17T02:16:00.424Z,0.056840003
2022-08-17T02:17:05.971Z,0.040600002
2022-08-17T02:18:00.105Z,0.081200004
2022-08-17T02:18:57.620Z,0.129920006
2022-08-17T02:19:56.886Z,0.089320004
2022-08-17T02:20:55.976Z,0.089320004
2022-08-17T02:22:51.252Z,0.113680005
2022-08-17T02:23:44.688Z,0.081200004
2022-08-17T02:24:58.297Z,0.056840003
2022-08-17T02:25:00.783Z,0.056840003
2022-08-17T02:25:44.910Z,0.040600002
2022-08-17T02:26:42.850Z,0.170520008
2022-08-17T02:27:40.095Z,0.089320004
2022-08-17T02:28:36.542Z,0.089320004
2022-08-17T02:29:40.162Z,0.00812
2022-08-17T02:31:00.364Z,0.178640008
2022-08-17T02:31:00.790Z,0.178640008
2022-08-17T02:31:00.816Z,0.178640008
2022-08-17T02:31:34.442Z,0.073080003
2022-08-17T02:32:32.948Z,0.081200004
2022-08-17T02:33:42.196Z,0.113680005
2022-08-17T02:33:42.805Z,0.113680005
2022-08-17T02:33:43.149Z,0.113680005
2022-08-17T02:36:29.601Z,0.040600002
2022-08-17T02:37:28.613Z,0.146160007
2022-08-17T02:38:29.208Z,0.162400007
2022-08-17T02:39:25.720Z,0.138040006
2022-08-17T02:40:28.609Z,0.138040006
2022-08-17T02:40:36.308Z,0.138040006
2022-08-17T02:42:30.274Z,0.089320004
2022-08-17T02:43:26.644Z,0.024360001
2022-08-17T02:44:39.625Z,0.081200004
2022-08-17T02:44:39.971Z,0.081200004
2022-08-17T02:45:35.709Z,0.056840003
2022-08-17T02:47:33.449Z,0.073080003
2022-08-17T02:48:31.596Z,0.113680005
2022-08-17T02:49:30.397Z,0.121800005
2022-08-17T02:50:26.743Z,0.105560005
2022-08-17T02:52:42.331Z,0.138040006
2022-08-17T02:52:42.646Z,0.138040006
2022-08-17T02:52:42.907Z,0.138040006
2022-08-17T02:53:36.045Z,0.105560005
2022-08-17T02:53:36.313Z,0.105560005
2022-08-17T02:54:41.817Z,0.048720002
2022-08-17T02:54:42.249Z,0.048720002
2022-08-17T02:55:36.020Z,0.073080003
2022-08-17T02:56:32.370Z,0.121800005
2022-08-17T02:57:35.270Z,0.121800005
2022-08-17T02:58:37.464Z,0.113680005
2022-08-17T02:59:48.378Z,0.121800005
2022-08-17T02:59:49.143Z,0.121800005
2022-08-17T03:00:41.625Z,0.113680005
2022-08-17T03:01:39.780Z,0.056840003
2022-08-17T03:02:44.747Z,0.064960003
2022-08-17T03:03:42.820Z,0.097440004
2022-08-17T03:04:47.487Z,0.105560005
2022-08-17T03:05:42.751Z,0.178640008
2022-08-17T03:07:43.860Z,0.113680005
2022-08-17T03:08:44.440Z,0.121800005
2022-08-17T03:09:40.792Z,0.089320004
2022-08-17T03:10:41.267Z,0.089320004
2022-08-17T03:11:43.800Z,0.154280007
2022-08-17T03:12:41.010Z,0.121800005
2022-08-17T03:13:52.396Z,0.081200004
2022-08-17T03:14:45.490Z,0.105560005
2022-08-17T03:15:54.612Z,0.105560005
2022-08-17T03:16:56.469Z,0.121800005
2022-08-17T03:19:10.361Z,0.089320004
2022-08-17T03:20:08.418Z,0.064960003
2022-08-17T03:22:19.885Z,0.048720002
2022-08-17T03:22:36.187Z,0.048720002
2022-08-17T03:22:36.229Z,0.048720002
2022-08-17T03:23:08.420Z,0.081200004
2022-08-17T03:24:08.757Z,0.170520008
2022-08-17T03:25:10.840Z,0.138040006
2022-08-17T03:26:05.115Z,0.121800005
2022-08-17T03:26:12.392Z,0.121800005
2022-08-17T03:27:07.225Z,0.105560005
2022-08-17T03:28:02.826Z,0.089320004
2022-08-17T03:29:05.018Z,0.146160007
2022-08-17T03:30:03.177Z,0.121800005
2022-08-17T03:31:06.100Z,0.097440004
2022-08-17T03:33:05.998Z,0.048720002
2022-08-17T03:34:06.137Z,0.040600002
2022-08-17T03:35:07.743Z,0.081200004
2022-08-17T03:36:04.153Z,0.113680005
2022-08-17T03:37:06.969Z,0.024360001
2022-08-17T03:38:02.564Z,0.073080003
2022-08-17T03:39:06.232Z,0.032480001
2022-08-17T03:40:08.256Z,0.081200004
2022-08-17T03:41:08.601Z,0.048720002
2022-08-17T03:42:31.298Z,0.081200004
2022-08-17T03:42:32.040Z,0.081200004
2022-08-17T03:43:13.578Z,0.056840003
2022-08-17T03:44:07.808Z,0.064960003
2022-08-17T03:45:15.099Z,0.129920006
2022-08-17T03:46:28.615Z,0.154280007
2022-08-17T03:46:34.347Z,0.154280007
2022-08-17T03:48:11.052Z,0.081200004
2022-08-17T03:49:11.117Z,0.097440004
2022-08-17T03:50:10.527Z,0.064960003
2022-08-17T03:51:14.854Z,0.089320004
2022-08-17T03:52:10.801Z,0.105560005
2022-08-17T03:53:14.931Z,0.097440004
2022-08-17T03:54:16.419Z,0.097440004
2022-08-17T03:55:18.200Z,0.113680005
2022-08-17T03:56:16.438Z,0.056840003
2022-08-17T03:57:11.654Z,0.064960003
2022-08-17T03:58:20.699Z,0.064960003
2022-08-17T03:59:22.388Z,0.024360001
2022-08-17T04:00:16.182Z,0.097440004
2022-08-17T04:02:14.340Z,0.113680005
2022-08-17T04:03:13.263Z,0.089320004
2022-08-17T04:04:36.794Z,-0.073080003
2022-08-17T04:05:17.544Z,0.121800005
2022-08-17T04:07:18.582Z,0.121800005
2022-08-17T04:08:19.854Z,0.146160007
2022-08-17T04:09:15.055Z,0.121800005
2022-08-17T04:10:25.941Z,0.073080003
2022-08-17T04:12:15.819Z,0.040600002
2022-08-17T04:13:16.292Z,0.170520008
2022-08-17T04:13:24.804Z,0.170520008
2022-08-17T04:14:16.497Z,0.064960003
2022-08-17T04:15:19.848Z,0.105560005
2022-08-17T04:16:22.443Z,0.154280007
2022-08-17T04:17:18.103Z,0.105560005
2022-08-17T04:18:18.884Z,0.146160007
2022-08-17T04:19:14.407Z,0.105560005
2022-08-17T04:20:20.827Z,0.097440004
2022-08-17T04:22:30.131Z,0.121800005
2022-08-17T04:22:30.385Z,0.121800005
2022-08-17T04:22:32.737Z,0.121800005
2022-08-17T04:23:17.638Z,0.113680005
2022-08-17T04:24:13.999Z,0.146160007
2022-08-17T04:25:16.521Z,0.048720002
2022-08-17T04:26:12.918Z,0.048720002
2022-08-17T04:26:53.885Z,0.048720002
2022-08-17T04:26:54.136Z,0.048720002
2022-08-17T04:28:15.626Z,0.129920006
2022-08-17T04:28:16.255Z,0.129920006
2022-08-17T04:29:11.670Z,0.146160007
2022-08-17T04:30:07.999Z,0.089320004
2022-08-17T04:31:12.167Z,0.089320004
2022-08-17T04:33:14.320Z,0.138040006
2022-08-17T04:34:09.845Z,0.154280007
2022-08-17T04:35:13.856Z,0.113680005
2022-08-17T04:36:08.432Z,0.154280007
2022-08-17T04:39:35.155Z,0.211120009
2022-08-17T04:40:36.846Z,0.056840003
2022-08-17T04:42:32.305Z,0.105560005
2022-08-17T04:43:31.391Z,0.138040006
2022-08-17T04:44:37.369Z,0.073080003
2022-08-17T04:44:37.613Z,0.073080003
2022-08-17T04:45:32.119Z,0.154280007
2022-08-17T04:47:33.733Z,0.105560005
2022-08-17T04:48:36.456Z,0.162400007
2022-08-17T04:48:36.564Z,0.162400007
2022-08-17T04:49:27.481Z,0.162400007
2022-08-17T04:50:29.633Z,0.121800005
2022-08-17T04:52:32.241Z,0.138040006
2022-08-17T04:52:42.604Z,0.138040006
2022-08-17T04:52:43.505Z,0.138040006
2022-08-17T04:53:25.516Z,0.138040006
2022-08-17T04:54:21.200Z,0.121800005
2022-08-17T04:55:20.452Z,0.056840003
2022-08-17T04:56:16.881Z,0.162400007
2022-08-17T04:57:14.945Z,0.121800005
2022-08-17T04:58:12.843Z,0.089320004
2022-08-17T04:59:13.388Z,0.064960003
2022-08-17T05:00:08.717Z,0.048720002
2022-08-17T05:01:12.758Z,0.032480001
2022-08-17T05:02:10.954Z,0.064960003
2022-08-17T05:03:09.543Z,0.194880009
2022-08-17T05:04:26.892Z,0.203000009
2022-08-17T05:04:32.125Z,0.203000009
2022-08-17T05:04:33.637Z,0.203000009
2022-08-17T05:05:06.538Z,0.121800005
2022-08-17T05:06:02.227Z,0.154280007
2022-08-17T05:07:01.609Z,0.146160007
2022-08-17T05:07:58.670Z,0.138040006
2022-08-17T05:09:01.125Z,0.146160007
2022-08-17T05:09:59.143Z,0.113680005
2022-08-17T05:10:57.808Z,0.097440004
2022-08-17T05:11:55.295Z,0.162400007
2022-08-17T05:12:54.284Z,0.251720011
2022-08-17T05:13:54.406Z,0.129920006
2022-08-17T05:14:55.656Z,0.097440004
2022-08-17T05:15:51.989Z,0.121800005
2022-08-17T05:16:53.638Z,0.284200013
2022-08-17T05:17:49.748Z,0.154280007
2022-08-17T05:18:51.946Z,0.121800005
2022-08-17T05:19:52.024Z,0.203000009
2022-08-17T05:20:45.355Z,0.22736001
2022-08-17T05:22:42.346Z,0.251720011
2022-08-17T05:23:46.132Z,0.267960012
2022-08-17T05:23:55.010Z,0.267960012
2022-08-17T05:24:53.426Z,0.22736001
2022-08-17T05:24:53.577Z,0.22736001
2022-08-17T05:25:39.622Z,0.284200013
2022-08-17T05:27:36.939Z,0.170520008
2022-08-17T05:28:33.336Z,0.259840012
2022-08-17T05:30:09.444Z,0.22736001
2022-08-17T05:33:16.350Z,0.276080012
2022-08-17T05:34:11.476Z,0.21924001
2022-08-17T05:35:10.643Z,0.259840012
2022-08-17T05:36:04.899Z,0.154280007
2022-08-17T05:37:03.418Z,0.129920006
2022-08-17T05:37:58.586Z,0.259840012
2022-08-17T05:38:58.890Z,0.357280016
2022-08-17T05:39:55.101Z,0.235480011
2022-08-17T05:41:00.134Z,0.178640008
2022-08-17T05:41:52.881Z,0.186760008
2022-08-17T05:42:53.979Z,0.121800005
2022-08-17T05:43:53.004Z,0.251720011
2022-08-17T05:43:56.404Z,0.251720011
2022-08-17T05:44:50.965Z,0.300440013
2022-08-17T05:45:55.319Z,0.332920015
2022-08-17T05:45:55.714Z,0.332920015
2022-08-17T05:45:55.848Z,0.332920015
2022-08-17T05:46:46.739Z,0.357280016
2022-08-17T05:47:40.970Z,0.389760017
2022-08-17T05:48:40.041Z,0.284200013
2022-08-17T05:49:32.835Z,0.308560014
2022-08-17T05:50:32.143Z,0.422240019
2022-08-17T05:51:28.326Z,0.341040015
2022-08-17T05:52:24.190Z,0.186760008
2022-08-17T05:53:29.079Z,0.276080012
2022-08-17T05:54:23.213Z,0.251720011
2022-08-17T05:55:23.354Z,0.324800014
2022-08-17T05:56:29.583Z,0.243600011
2022-08-17T05:56:29.646Z,0.243600011
2022-08-17T05:56:29.722Z,0.243600011
2022-08-17T05:58:12.519Z,0.430360019
2022-08-17T05:59:10.372Z,0.397880018
2022-08-17T06:00:06.456Z,0.373520017
2022-08-17T06:01:10.558Z,0.422240019
2022-08-17T06:03:09.434Z,0.373520017
2022-08-17T06:04:00.744Z,0.44660002
2022-08-17T06:05:00.218Z,0.414120018
2022-08-17T06:05:54.036Z,0.276080012
2022-08-17T06:06:52.604Z,0.389760017
2022-08-17T06:09:02.083Z,0.373520017
2022-08-17T06:10:05.368Z,0.479080021
2022-08-17T06:11:05.894Z,0.316680014
2022-08-17T06:13:04.715Z,0.365400016
2022-08-17T06:14:06.861Z,0.495320022
2022-08-17T06:15:02.273Z,0.576520026
2022-08-17T06:16:04.133Z,0.519680023
2022-08-17T06:18:00.511Z,0.430360019
2022-08-17T06:18:55.844Z,0.43848002
2022-08-17T06:19:57.125Z,0.45472002
2022-08-17T06:21:53.130Z,0.45472002
2022-08-17T06:22:48.495Z,0.470960021
2022-08-17T06:23:51.847Z,0.406000018
2022-08-17T06:24:51.178Z,0.568400025
2022-08-17T06:25:46.896Z,0.373520017
2022-08-17T06:27:42.517Z,0.511560023
2022-08-17T06:28:46.245Z,0.470960021
2022-08-17T06:29:40.574Z,0.503440022
2022-08-17T06:30:59.107Z,0.495320022
2022-08-17T06:30:59.352Z,0.495320022
2022-08-17T06:30:59.902Z,0.495320022
2022-08-17T06:31:40.325Z,0.544040024
2022-08-17T06:32:41.241Z,0.568400025
2022-08-17T06:33:34.539Z,0.511560023
2022-08-17T06:34:33.491Z,0.43848002
2022-08-17T06:35:34.147Z,0.414120018
2022-08-17T06:37:35.429Z,0.535920024
2022-08-17T06:38:37.539Z,0.381640017
2022-08-17T06:38:38.491Z,0.381640017
2022-08-17T06:38:38.864Z,0.381640017
2022-08-17T06:39:29.773Z,0.519680023
2022-08-17T06:40:25.387Z,0.657720029
2022-08-17T06:41:26.209Z,0.495320022
2022-08-17T06:42:54.813Z,0.357280016
2022-08-17T06:43:02.817Z,0.357280016
2022-08-17T06:44:42.142Z,0.462840021
2022-08-17T06:44:50.063Z,0.462840021
2022-08-17T06:45:21.354Z,0.535920024
2022-08-17T06:46:18.672Z,0.503440022
2022-08-17T06:47:28.108Z,0.503440022
2022-08-17T06:47:28.850Z,0.503440022
2022-08-17T06:47:29.279Z,0.503440022
2022-08-17T06:48:18.687Z,0.357280016
2022-08-17T06:49:16.833Z,0.495320022
2022-08-17T06:50:19.913Z,0.576520026
2022-08-17T06:51:17.898Z,0.470960021
2022-08-17T06:52:42.293Z,0.576520026
2022-08-17T06:52:45.355Z,0.576520026
2022-08-17T06:54:06.789Z,0.527800024
2022-08-17T06:55:06.552Z,0.470960021
2022-08-17T06:56:06.689Z,0.820120037
2022-08-17T07:00:17.114Z,0.592760026
2022-08-17T07:01:15.992Z,0.357280016
2022-08-17T07:02:14.656Z,0.568400025
2022-08-17T07:03:09.343Z,0.568400025
2022-08-17T07:04:12.090Z,0.584640026
2022-08-17T07:05:06.638Z,0.633360028
2022-08-17T07:06:01.892Z,0.690200031
2022-08-17T07:06:59.613Z,0.706440032
2022-08-17T07:07:53.721Z,0.495320022
2022-08-17T07:08:52.455Z,0.625240028
2022-08-17T07:09:46.806Z,0.487200022
2022-08-17T07:10:42.719Z,0.649600029
2022-08-17T07:11:43.664Z,0.609000027
2022-08-17T07:12:35.200Z,0.641480029
2022-08-17T07:13:33.090Z,0.617120028
2022-08-17T07:14:28.257Z,0.617120028
2022-08-17T07:15:25.500Z,0.714560032
2022-08-17T07:16:21.745Z,0.503440022
2022-08-17T07:18:15.335Z,0.649600029
2022-08-17T07:19:13.371Z,0.600880027
2022-08-17T07:20:08.531Z,0.527800024
2022-08-17T07:21:07.319Z,0.552160025
2022-08-17T07:23:01.658Z,0.552160025
2022-08-17T07:23:53.080Z,0.722680032
2022-08-17T07:24:53.733Z,0.470960021
2022-08-17T07:25:45.026Z,0.690200031
2022-08-17T07:27:38.952Z,0.609000027
2022-08-17T07:28:40.473Z,0.462840021
2022-08-17T07:29:31.477Z,0.714560032
2022-08-17T07:30:45.739Z,0.462840021
2022-08-17T07:30:45.742Z,0.462840021
2022-08-17T07:31:27.094Z,0.657720029
2022-08-17T07:33:20.452Z,0.332920015
2022-08-17T07:34:14.821Z,0.698320031
2022-08-17T07:35:16.594Z,0.690200031
2022-08-17T07:36:10.040Z,0.860720038
2022-08-17T07:37:08.890Z,0.690200031
2022-08-17T07:38:03.988Z,0.779520035
2022-08-17T07:38:24.416Z,0.779520035
2022-08-17T07:38:25.457Z,0.779520035
2022-08-17T07:39:05.533Z,0.844480038
2022-08-17T07:39:59.639Z,0.836360037
2022-08-17T07:40:15.364Z,0.836360037
2022-08-17T07:40:16.155Z,0.836360037
2022-08-17T07:40:57.089Z,0.812000036
2022-08-17T07:42:52.958Z,0.68208003
2022-08-17T07:43:44.400Z,1.023120046
2022-08-17T07:44:51.133Z,0.747040033
2022-08-17T07:45:43.406Z,0.860720038
2022-08-17T07:46:43.946Z,0.974400043
2022-08-17T07:47:36.266Z,0.88508004
2022-08-17T07:48:37.314Z,1.088080049
2022-08-17T07:49:28.742Z,0.950040042
2022-08-17T07:50:28.105Z,1.307320118
2022-08-17T07:51:23.240Z,1.323559999
2022-08-17T07:53:15.827Z,1.291079998
2022-08-17T07:54:17.139Z,1.258599997
2022-08-17T07:55:11.865Z,1.055600047
2022-08-17T07:56:11.961Z,1.144920111
2022-08-17T07:59:10.694Z,1.071840048
2022-08-17T08:00:08.748Z,0.933800042
2022-08-17T08:00:16.363Z,0.933800042
2022-08-17T08:01:09.569Z,1.071840048
2022-08-17T08:02:05.764Z,1.218000054
2022-08-17T08:03:05.380Z,1.088080049
2022-08-17T08:04:01.730Z,1.071840048
2022-08-17T08:05:02.245Z,1.136800051
2022-08-17T08:05:57.673Z,0.982520044
2022-08-17T08:07:52.740Z,1.193639994
2022-08-17T08:08:52.778Z,1.315440059
2022-08-17T08:09:48.098Z,1.161159992
2022-08-17T08:10:51.036Z,1.477840066
2022-08-17T08:12:44.158Z,1.12056005
2022-08-17T08:13:39.470Z,1.291079998
2022-08-17T08:14:38.364Z,2.054360151
2022-08-17T08:15:38.055Z,1.818880081
2022-08-17T08:16:33.557Z,1.940680027
2022-08-17T08:18:53.421Z,1.477840066
2022-08-17T08:18:53.438Z,1.477840066
2022-08-17T08:19:32.974Z,1.047480106
2022-08-17T08:20:51.312Z,1.282960057
2022-08-17T08:20:51.699Z,1.282960057
2022-08-17T08:20:53.225Z,1.282960057
2022-08-17T08:21:30.091Z,1.12056005
2022-08-17T08:23:30.570Z,0.844480038
2022-08-17T08:24:25.708Z,0.860720038
2022-08-17T08:24:31.078Z,0.860720038
2022-08-17T08:25:25.357Z,0.844480038
2022-08-17T08:26:22.048Z,0.820120037
2022-08-17T08:28:18.976Z,0.852600038
2022-08-17T08:29:19.325Z,0.68208003
2022-08-17T08:30:14.952Z,1.55092001
2022-08-17T08:31:15.773Z,1.307320118
2022-08-17T08:32:11.429Z,1.12056005
2022-08-17T08:33:09.029Z,0.966280043
2022-08-17T08:34:44.477Z,0.966280043
2022-08-17T08:34:47.380Z,0.966280043
2022-08-17T08:35:11.985Z,0.812000036
2022-08-17T08:36:08.424Z,0.974400043
2022-08-17T08:38:06.674Z,0.90132004
2022-08-17T08:39:09.391Z,0.868840039
2022-08-17T08:40:07.665Z,0.706440032
2022-08-17T08:41:05.510Z,0.90132004
2022-08-17T08:41:58.325Z,0.820120037
2022-08-17T08:43:01.398Z,1.088080049
2022-08-17T08:43:55.651Z,1.307320118
2022-08-17T08:45:00.245Z,1.226119995
2022-08-17T08:45:04.540Z,1.226119995
2022-08-17T08:45:52.042Z,1.437240124
2022-08-17T08:47:51.457Z,1.640240073
2022-08-17T08:48:56.533Z,1.201760054
2022-08-17T08:48:57.981Z,1.201760054
2022-08-17T08:48:59.206Z,1.201760054
2022-08-17T08:50:03.803Z,1.713320017
2022-08-17T08:50:05.366Z,1.713320017
2022-08-17T08:50:08.720Z,1.713320017
2022-08-17T08:51:37.206Z,1.55092001
2022-08-17T08:52:37.579Z,1.128679991
2022-08-17T08:54:54.439Z,1.291079998
2022-08-17T08:55:52.618Z,1.177400112
2022-08-17T08:57:22.843Z,1.193639994
2022-08-17T08:57:23.894Z,1.193639994
2022-08-17T08:57:24.430Z,1.193639994
2022-08-17T08:57:52.360Z,1.031239986
2022-08-17T08:58:51.375Z,1.006880045
2022-08-17T08:59:51.237Z,0.88508004
2022-08-17T08:59:57.928Z,0.88508004
2022-08-17T08:59:58.245Z,0.88508004
2022-08-17T09:00:45.740Z,0.820120037
2022-08-17T09:01:43.173Z,0.820120037
2022-08-17T09:02:38.386Z,0.933800042
2022-08-17T09:03:52.194Z,0.917560041
2022-08-17T09:03:52.340Z,0.917560041
2022-08-17T09:03:52.815Z,0.917560041
2022-08-17T09:04:50.176Z,0.852600038
2022-08-17T09:05:12.444Z,0.852600038
2022-08-17T09:05:12.775Z,0.852600038
2022-08-17T09:05:33.966Z,0.600880027
2022-08-17T09:06:33.215Z,0.649600029
2022-08-17T09:06:39.011Z,0.649600029
2022-08-17T09:06:40.091Z,0.649600029
2022-08-17T09:08:25.524Z,0.68208003
2022-08-17T09:09:25.181Z,0.795760036
2022-08-17T09:10:20.492Z,0.690200031
2022-08-17T09:11:19.542Z,0.690200031
2022-08-17T09:12:14.626Z,0.812000036
2022-08-17T09:13:13.579Z,0.633360028
2022-08-17T09:14:21.028Z,0.698320031
2022-08-17T09:14:21.212Z,0.698320031
2022-08-17T09:14:28.594Z,0.698320031
2022-08-17T09:15:13.098Z,0.479080021
2022-08-17T09:16:06.031Z,0.568400025
2022-08-17T09:18:30.401Z,0.787640035
2022-08-17T09:19:01.390Z,0.787640035
2022-08-17T09:19:03.191Z,0.787640035
2022-08-17T09:19:04.297Z,0.67396003
2022-08-17T09:19:59.233Z,0.552160025
2022-08-17T09:20:54.356Z,0.714560032
2022-08-17T09:22:49.128Z,0.876960039
2022-08-17T09:23:50.246Z,0.730800033
2022-08-17T09:24:45.491Z,0.820120037
2022-08-17T09:25:44.372Z,0.592760026
2022-08-17T09:26:38.652Z,0.812000036
2022-08-17T09:27:40.829Z,0.755160034
2022-08-17T09:28:32.651Z,0.852600038
2022-08-17T09:29:34.334Z,0.836360037
2022-08-17T09:30:26.743Z,0.730800033
2022-08-17T09:31:33.135Z,0.747040033
2022-08-17T09:31:33.597Z,0.747040033
2022-08-17T09:32:23.117Z,0.381640017
2022-08-17T09:33:22.108Z,0.535920024
2022-08-17T09:34:29.579Z,0.45472002
2022-08-17T09:34:32.007Z,0.45472002
2022-08-17T09:35:18.423Z,0.503440022
2022-08-17T09:36:14.459Z,0.527800024
2022-08-17T09:38:09.358Z,0.641480029
2022-08-17T09:39:11.116Z,0.552160025
2022-08-17T09:40:05.067Z,0.389760017
2022-08-17T09:41:06.679Z,0.714560032
2022-08-17T09:41:59.064Z,0.511560023
2022-08-17T09:43:00.316Z,0.527800024
2022-08-17T09:43:54.041Z,0.690200031
2022-08-17T09:44:56.906Z,0.568400025
2022-08-17T09:45:48.794Z,0.771400034
2022-08-17T09:46:53.256Z,0.357280016
2022-08-17T09:47:45.979Z,0.722680032
2022-08-17T09:48:48.259Z,0.503440022
2022-08-17T09:51:06.853Z,0.787640035
2022-08-17T09:52:04.268Z,0.641480029
2022-08-17T09:53:01.273Z,0.568400025
2022-08-17T09:54:21.001Z,0.779520035
2022-08-17T09:54:35.205Z,0.779520035
2022-08-17T09:54:37.492Z,0.779520035
2022-08-17T09:55:03.241Z,0.66584003
2022-08-17T09:55:59.449Z,0.67396003
2022-08-17T09:57:25.930Z,0.487200022
2022-08-17T09:57:28.072Z,0.487200022
2022-08-17T09:57:28.706Z,0.487200022
2022-08-17T09:57:57.651Z,0.503440022
2022-08-17T09:58:52.814Z,0.527800024
2022-08-17T09:59:55.496Z,0.568400025
2022-08-17T10:00:50.942Z,0.641480029
2022-08-17T10:01:49.894Z,0.763280034
2022-08-17T10:02:45.267Z,0.527800024
2022-08-17T10:03:43.534Z,0.730800033